Time;durP1;ratioP1;P1;durP2;ratioP2;P2;SDS_P1;SDS_P2;PMS_P1;PMS_P2;Temp;Humidity;BMP_temperature;BMP_pressure;BME280_temperature;BME280_humidity;BME280_pressure;Samples;Min_cycle;Max_cycle;Signal;HPM_P1;HPM_P2
2022/05/09 00:01:04;;;;;;;28.52;5.22;;;;;;;10.17;71.87;102743.97;5055168;28;20124;-34
2022/05/09 00:03:31;;;;;;;23.23;4.25;;;;;;;10.16;71.92;102750.34;5069713;28;20036;-35
2022/05/09 00:05:56;;;;;;;12.88;3.95;;;;;;;10.11;71.50;102748.06;5065033;28;20028;-36
2022/05/09 00:08:21;;;;;;;17.65;3.83;;;;;;;10.15;70.80;102745.09;5074457;28;20069;-34
2022/05/09 00:10:47;;;;;;;15.25;3.67;;;;;;;10.13;69.95;102747.91;5071524;28;20108;-34
2022/05/09 00:13:12;;;;;;;19.05;4.22;;;;;;;10.06;69.94;102738.69;5070345;28;20161;-34
2022/05/09 00:15:37;;;;;;;17.88;3.55;;;;;;;10.05;69.77;102739.66;5055429;28;20046;-34
2022/05/09 00:18:03;;;;;;;20.27;4.22;;;;;;;10.02;69.13;102739.91;5059375;28;20020;-35
2022/05/09 00:20:28;;;;;;;11.75;3.20;;;;;;;9.99;69.23;102737.50;5072725;28;20033;-36
2022/05/09 00:22:55;;;;;;;20.75;3.75;;;;;;;9.96;68.67;102735.91;5054464;28;20060;-35
2022/05/09 00:25:23;;;;;;;18.80;4.03;;;;;;;9.95;68.78;102738.72;5053487;28;20025;-36
2022/05/09 00:27:49;;;;;;;16.20;3.65;;;;;;;9.85;68.81;102742.22;5053987;28;20045;-34
2022/05/09 00:30:16;;;;;;;16.02;3.75;;;;;;;9.81;68.85;102732.69;5046728;28;20379;-34
2022/05/09 00:32:41;;;;;;;13.65;3.47;;;;;;;9.84;68.94;102737.81;5072093;28;20028;-34
2022/05/09 00:35:09;;;;;;;16.77;3.75;;;;;;;9.85;68.63;102736.84;5074436;28;20029;-35
2022/05/09 00:37:34;;;;;;;15.75;3.97;;;;;;;9.79;68.83;102736.50;5072342;28;20060;-34
2022/05/09 00:40:00;;;;;;;25.08;3.95;;;;;;;9.80;68.53;102741.75;5073361;28;20411;-35
2022/05/09 00:42:25;;;;;;;12.98;3.17;;;;;;;9.78;68.88;102737.50;5057850;28;20082;-35
2022/05/09 00:44:50;;;;;;;13.32;3.80;;;;;;;9.77;68.91;102736.66;5054160;28;20025;-36
2022/05/09 00:47:16;;;;;;;13.63;3.63;;;;;;;9.68;68.69;102734.72;5073607;28;20047;-36
2022/05/09 00:49:48;;;;;;;21.75;4.43;;;;;;;9.67;68.75;102727.66;5071749;28;20420;-35
2022/05/09 00:52:21;;;;;;;17.15;3.00;;;;;;;9.62;68.84;102727.19;5041221;28;20033;-34
2022/05/09 00:55:08;;;;;;;15.20;3.05;;;;;;;9.58;69.20;102725.72;5052350;28;20025;-34
2022/05/09 00:57:37;;;;;;;15.30;3.65;;;;;;;9.55;69.23;102723.31;5053924;28;20087;-34
2022/05/09 01:00:08;;;;;;;13.65;3.97;;;;;;;9.49;69.68;102718.44;5036137;28;20043;-34
2022/05/09 01:02:35;;;;;;;21.55;4.00;;;;;;;9.41;69.66;102721.78;5053816;28;20025;-35
2022/05/09 01:05:00;;;;;;;19.55;3.97;;;;;;;9.37;69.82;102715.81;5035950;28;20444;-35
2022/05/09 01:07:27;;;;;;;17.42;3.75;;;;;;;9.35;70.16;102720.47;5060841;28;20029;-36
2022/05/09 01:09:52;;;;;;;12.90;3.13;;;;;;;9.35;70.00;102719.63;5067676;28;20394;-34
2022/05/09 01:12:21;;;;;;;17.27;3.88;;;;;;;9.26;70.12;102715.84;5069635;28;20059;-37
2022/05/09 01:14:47;;;;;;;16.55;3.28;;;;;;;9.26;70.80;102704.25;5051904;28;20029;-34
2022/05/09 01:17:13;;;;;;;17.63;3.65;;;;;;;9.26;70.53;102707.78;5035640;28;20074;-34
2022/05/09 01:19:41;;;;;;;16.75;3.80;;;;;;;9.24;70.40;102707.03;5055131;28;20041;-35
2022/05/09 01:22:24;;;;;;;17.13;3.83;;;;;;;9.18;70.82;102702.19;5072834;28;20044;-36
2022/05/09 01:24:51;;;;;;;19.92;3.53;;;;;;;9.15;70.85;102707.81;5067297;28;20029;-34
2022/05/09 01:27:17;;;;;;;22.90;3.22;;;;;;;9.08;71.24;102711.97;5035684;28;20021;-33
2022/05/09 01:29:49;;;;;;;28.70;3.60;;;;;;;9.09;71.31;102700.28;5053412;28;20565;-34
2022/05/09 01:32:18;;;;;;;15.10;3.40;;;;;;;9.05;71.34;102696.97;5051964;28;20029;-34
2022/05/09 01:34:47;;;;;;;23.30;3.85;;;;;;;9.05;71.24;102693.44;5057274;28;20037;-35
2022/05/09 01:37:13;;;;;;;26.13;4.22;;;;;;;9.02;71.64;102697.22;5072341;28;20036;-34
2022/05/09 01:39:39;;;;;;;18.83;3.63;;;;;;;9.01;71.63;102685.63;5072521;28;20033;-36
2022/05/09 01:42:08;;;;;;;14.18;3.20;;;;;;;8.95;71.96;102688.84;5053094;28;20120;-35
2022/05/09 01:44:34;;;;;;;13.02;3.40;;;;;;;8.98;71.72;102685.06;5055521;28;20080;-34
2022/05/09 01:49:43;;;;;;;21.35;4.35;;;;;;;8.87;72.47;102683.22;5062397;28;20047;-36
2022/05/09 01:52:09;;;;;;;16.83;3.72;;;;;;;8.88;72.64;102679.56;5072864;28;20479;-33
2022/05/09 01:54:35;;;;;;;14.95;4.03;;;;;;;8.85;72.62;102677.16;5072416;28;20025;-36
2022/05/09 01:57:01;;;;;;;19.73;3.47;;;;;;;8.83;72.65;102680.94;5072176;28;20041;-34
2022/05/09 01:59:27;;;;;;;19.00;3.67;;;;;;;8.87;72.74;102685.91;5045421;28;20357;-35
2022/05/09 02:01:57;;;;;;;16.80;4.13;;;;;;;8.84;72.82;102680.78;5069636;28;20043;-34
2022/05/09 02:04:23;;;;;;;22.40;4.35;;;;;;;8.92;72.43;102682.84;5036892;28;20159;-34
2022/05/09 02:06:49;;;;;;;19.00;3.42;;;;;;;8.87;72.65;102683.22;5052413;28;20040;-35
2022/05/09 02:09:15;;;;;;;18.98;3.80;;;;;;;8.83;72.54;102680.94;5065767;28;20025;-34
2022/05/09 02:11:40;;;;;;;19.58;4.07;;;;;;;8.85;72.63;102687.03;5052559;28;20665;-34
2022/05/09 02:14:06;;;;;;;18.15;4.07;;;;;;;8.83;72.88;102679.09;5052204;28;20390;-34
2022/05/09 02:16:31;;;;;;;16.02;3.55;;;;;;;8.83;72.54;102676.41;5066467;28;20037;-34
2022/05/09 02:18:57;;;;;;;13.95;3.85;;;;;;;8.81;72.71;102677.50;5071799;28;20035;-34
2022/05/09 02:21:22;;;;;;;17.23;3.53;;;;;;;8.75;73.18;102673.50;5071663;28;20340;-34
2022/05/09 02:23:47;;;;;;;17.63;4.45;;;;;;;8.70;73.40;102678.38;5071641;28;20477;-34
2022/05/09 02:26:13;;;;;;;19.98;4.10;;;;;;;8.61;73.47;102681.81;5059257;28;20519;-34
2022/05/09 02:28:38;;;;;;;23.75;3.50;;;;;;;8.60;73.58;102685.47;5051969;28;20032;-35
2022/05/09 02:31:04;;;;;;;22.08;4.18;;;;;;;8.56;73.95;102679.50;5051910;28;20549;-35
2022/05/09 02:33:29;;;;;;;24.27;4.10;;;;;;;8.55;74.11;102678.63;5100217;22;20053;-33
2022/05/09 02:35:55;;;;;;;24.58;4.32;;;;;;;8.49;74.08;102679.13;5040881;28;20056;-34
2022/05/09 02:38:24;;;;;;;22.38;4.18;;;;;;;8.48;74.13;102681.97;5040417;28;20041;-32
2022/05/09 02:40:49;;;;;;;21.75;4.20;;;;;;;8.47;74.48;102680.25;5040545;28;20053;-34
2022/05/09 02:43:15;;;;;;;21.88;4.47;;;;;;;8.39;74.76;102675.47;5039138;28;20091;-32
2022/05/09 02:45:40;;;;;;;15.98;4.25;;;;;;;8.38;75.02;102676.44;5040621;28;20468;-33
2022/05/09 02:48:07;;;;;;;13.63;3.80;;;;;;;8.37;75.30;102669.34;5039487;28;20503;-34
2022/05/09 02:50:32;;;;;;;15.85;3.78;;;;;;;8.36;75.53;102662.28;5055622;28;20065;-33
2022/05/09 02:52:57;;;;;;;17.38;4.30;;;;;;;8.39;75.31;102667.44;5039253;28;20418;-33
2022/05/09 02:55:22;;;;;;;19.13;5.03;;;;;;;8.36;75.34;102656.91;5037539;28;20085;-32
2022/05/09 02:57:48;;;;;;;14.77;4.22;;;;;;;8.35;75.76;102663.28;5039894;28;20049;-32
2022/05/09 03:00:21;;;;;;;17.58;3.75;;;;;;;8.35;75.55;102655.22;5043691;28;20129;-31
2022/05/09 03:05:35;;;;;;;16.33;3.90;;;;;;;8.28;76.09;102648.63;5021494;28;20552;-30
2022/05/09 03:08:01;;;;;;;15.57;3.53;;;;;;;8.29;76.20;102653.91;5044276;28;20396;-31
2022/05/09 03:10:28;;;;;;;10.90;4.03;;;;;;;8.28;76.08;102660.22;5043811;28;20036;-32
2022/05/09 03:12:56;;;;;;;22.20;4.75;;;;;;;8.23;76.22;102651.69;5041510;28;20033;-32
2022/05/09 03:15:21;;;;;;;15.45;4.10;;;;;;;8.25;76.50;102648.88;5023721;28;20542;-32
2022/05/09 03:17:46;;;;;;;15.25;4.07;;;;;;;8.28;76.55;102651.31;5042877;28;20030;-31
2022/05/09 03:20:12;;;;;;;23.23;4.28;;;;;;;8.23;76.27;102648.16;5040975;28;20280;-33
2022/05/09 03:22:37;;;;;;;19.15;4.35;;;;;;;8.24;76.53;102641.78;5039507;28;20037;-33
2022/05/09 03:25:03;;;;;;;15.57;4.38;;;;;;;8.19;76.81;102644.00;5040490;28;20041;-34
2022/05/09 03:27:28;;;;;;;24.83;4.13;;;;;;;8.20;76.80;102640.34;5040663;28;20045;-34
2022/05/09 03:29:54;;;;;;;25.13;6.60;;;;;;;8.16;76.91;102638.88;5040330;28;20105;-31
2022/05/09 03:32:19;;;;;;;11.15;3.75;;;;;;;8.15;77.22;102648.75;5039215;28;20025;-32
2022/05/09 03:34:46;;;;;;;24.98;6.07;;;;;;;8.14;77.01;102636.34;5041159;28;20065;-31
2022/05/09 03:37:11;;;;;;;16.25;4.85;;;;;;;8.11;77.40;102637.44;5039847;28;20423;-31
2022/05/09 03:39:37;;;;;;;20.63;4.55;;;;;;;8.03;77.35;102637.19;5018493;28;20025;-33
2022/05/09 03:42:02;;;;;;;17.10;4.53;;;;;;;8.04;77.52;102630.84;5020802;28;20026;-33
2022/05/09 03:44:28;;;;;;;30.88;5.70;;;;;;;8.03;77.86;102630.94;5019319;28;20080;-31
2022/05/09 03:46:53;;;;;;;17.70;5.00;;;;;;;8.09;77.58;102628.66;5019816;28;20097;-32
2022/05/09 03:49:19;;;;;;;24.52;5.03;;;;;;;8.04;77.59;102625.47;5021530;28;20442;-31
2022/05/09 03:51:44;;;;;;;21.38;4.90;;;;;;;8.02;77.76;102622.06;5019774;28;20036;-33
2022/05/09 03:54:10;;;;;;;17.85;4.30;;;;;;;8.01;77.97;102625.72;5020081;28;20045;-33
2022/05/09 03:56:35;;;;;;;21.23;4.88;;;;;;;8.01;77.93;102623.03;5020153;28;20069;-31
2022/05/09 03:59:00;;;;;;;19.58;4.22;;;;;;;7.97;77.83;102624.25;5019976;28;20041;-34
2022/05/09 04:01:26;;;;;;;24.63;6.07;;;;;;;7.97;78.36;102618.88;5028627;28;20118;-32
2022/05/09 04:03:51;;;;;;;18.02;4.10;;;;;;;7.90;78.18;102625.72;5023512;28;20262;-32
2022/05/09 04:06:17;;;;;;;21.60;5.78;;;;;;;7.92;78.21;102623.75;5022764;28;20030;-33
2022/05/09 04:08:42;;;;;;;28.10;5.20;;;;;;;7.97;78.05;102618.03;5027185;28;20042;-32
2022/05/09 04:11:07;;;;;;;16.55;4.60;;;;;;;7.91;78.19;102611.34;5026738;28;20453;-33
2022/05/09 04:13:33;;;;;;;22.05;4.78;;;;;;;7.89;78.25;102615.97;5031024;28;20075;-33
2022/05/09 04:18:43;;;;;;;18.38;5.00;;;;;;;7.86;78.54;102610.84;5022819;28;20049;-32
2022/05/09 04:21:10;;;;;;;17.63;5.22;;;;;;;7.89;78.51;102613.28;5023673;28;20030;-33
2022/05/09 04:23:36;;;;;;;15.10;4.63;;;;;;;7.91;78.46;102614.00;5023100;28;20045;-34
2022/05/09 04:26:01;;;;;;;16.40;4.70;;;;;;;7.92;78.60;102610.34;5024711;28;20018;-33
2022/05/09 04:28:27;;;;;;;21.75;5.05;;;;;;;7.92;78.42;102615.72;5024948;28;20036;-31
2022/05/09 04:30:53;;;;;;;17.63;4.32;;;;;;;7.91;78.55;102614.88;5023224;28;20033;-31
2022/05/09 04:33:19;;;;;;;28.45;5.65;;;;;;;7.98;78.44;102609.00;5028718;28;20445;-32
2022/05/09 04:35:44;;;;;;;21.48;5.07;;;;;;;7.99;78.20;102603.53;5025626;28;20033;-31
2022/05/09 04:38:21;;;;;;;17.15;4.65;;;;;;;8.03;78.19;102605.00;5021737;28;20080;-33
2022/05/09 04:40:51;;;;;;;21.27;5.13;;;;;;;7.98;78.11;102601.84;5022922;28;20022;-33
2022/05/09 04:43:17;;;;;;;19.33;4.75;;;;;;;8.04;78.10;102604.03;5024507;28;20204;-31
2022/05/09 04:45:42;;;;;;;21.52;4.90;;;;;;;8.04;78.20;102606.69;5034656;28;20049;-33
2022/05/09 04:48:07;;;;;;;14.15;4.70;;;;;;;8.07;78.27;102608.28;5001955;28;20039;-34
2022/05/09 04:50:34;;;;;;;16.17;4.43;;;;;;;8.12;78.33;102604.25;5022186;28;20025;-32
2022/05/09 04:53:00;;;;;;;24.92;5.10;;;;;;;8.25;78.33;102596.09;5021600;28;20496;-33
2022/05/09 04:55:25;;;;;;;20.10;6.38;;;;;;;8.34;77.53;102599.84;5033994;28;20032;-33
2022/05/09 04:57:51;;;;;;;21.40;5.25;;;;;;;8.36;77.30;102603.25;5023248;28;20021;-33
2022/05/09 05:00:20;;;;;;;17.75;4.35;;;;;;;8.43;77.46;102598.31;5023537;28;20200;-33
2022/05/09 05:02:45;;;;;;;;;;;;;;;8.53;77.00;102597.41;5020672;28;20030;-31
2022/05/09 05:05:10;;;;;;;15.85;4.15;;;;;;;8.62;76.63;102594.97;5021835;28;19920;-33
2022/05/09 05:07:36;;;;;;;25.65;5.30;;;;;;;8.67;76.53;102601.66;5020246;28;20037;-32
2022/05/09 05:10:03;;;;;;;18.73;4.85;;;;;;;8.76;76.40;102594.66;5023051;28;20061;-30
2022/05/09 05:12:29;;;;;;;16.08;5.07;;;;;;;8.84;75.98;102594.03;5032117;28;20022;-32
2022/05/09 05:14:54;;;;;;;19.73;5.13;;;;;;;8.94;75.94;102603.88;5022225;28;20488;-34
2022/05/09 05:17:19;;;;;;;23.55;4.95;;;;;;;9.00;75.48;102598.00;5016849;28;20072;-32
2022/05/09 05:19:45;;;;;;;21.25;5.57;;;;;;;9.10;75.16;102598.06;5031272;28;20030;-32
2022/05/09 05:22:15;;;;;;;28.33;4.88;;;;;;;9.15;74.41;102597.69;5019704;28;20026;-32
2022/05/09 05:24:43;;;;;;;35.45;5.25;;;;;;;9.22;73.85;102590.81;5025894;28;20040;-33
2022/05/09 05:27:09;;;;;;;;;;;;;;;9.28;73.71;102587.59;5023900;28;20440;-32
2022/05/09 05:29:34;;;;;;;53.78;6.85;;;;;;;9.41;73.10;102584.72;5023372;28;19968;-31
2022/05/09 05:31:59;;;;;;;38.10;6.55;;;;;;;9.52;72.01;102586.47;5011601;28;20032;-31
2022/05/09 05:34:25;;;;;;;53.15;7.78;;;;;;;9.58;71.45;102591.31;5021795;28;20080;-32
2022/05/09 05:36:50;;;;;;;28.02;5.32;;;;;;;9.60;71.28;102594.72;5020517;28;20313;-33
2022/05/09 05:39:17;;;;;;;26.48;5.75;;;;;;;9.57;70.43;102593.16;5005884;28;20658;-32
2022/05/09 05:41:43;;;;;;;37.38;6.30;;;;;;;9.70;71.02;102601.03;5022133;28;20045;-31
2022/05/09 05:44:11;;;;;;;23.33;5.43;;;;;;;9.85;70.05;102602.38;5021239;28;20045;-33
2022/05/09 05:46:39;;;;;;;19.27;5.13;;;;;;;9.97;69.83;102599.59;5020493;28;20383;-32
2022/05/09 05:49:04;;;;;;;18.02;5.35;;;;;;;10.08;68.41;102604.88;5037630;28;20166;-33
2022/05/09 05:51:29;;;;;;;14.07;4.65;;;;;;;10.28;67.90;102600.44;5026128;28;20465;-34
2022/05/09 05:53:58;;;;;;;28.63;6.40;;;;;;;10.42;66.93;102604.59;5021364;28;20022;-33
2022/05/09 05:56:23;;;;;;;21.17;6.65;;;;;;;10.50;65.94;102599.38;5022561;28;20026;-31
2022/05/09 05:58:48;;;;;;;19.40;5.35;;;;;;;10.94;65.50;102602.56;5021738;28;20064;-32
2022/05/09 06:01:14;;;;;;;30.10;5.85;;;;;;;11.63;63.68;102613.09;5023204;28;20048;-33
2022/05/09 06:03:39;;;;;;;18.02;5.40;;;;;;;12.28;61.33;102620.44;5030170;28;20129;-31
2022/05/09 06:06:04;;;;;;;21.65;5.03;;;;;;;12.73;59.21;102615.06;5028014;28;20045;-33
2022/05/09 06:08:30;;;;;;;22.58;5.57;;;;;;;13.51;56.30;102616.31;5033883;28;20503;-32
2022/05/09 06:10:55;;;;;;;21.13;5.70;;;;;;;14.49;54.29;102608.69;5034100;28;20326;-32
2022/05/09 06:13:21;;;;;;;22.40;5.10;;;;;;;15.42;51.92;102615.75;5025350;28;20469;-32
2022/05/09 06:15:46;;;;;;;23.25;6.68;;;;;;;16.43;48.81;102624.19;5021240;28;20190;-31
2022/05/09 06:18:14;;;;;;;21.63;5.60;;;;;;;16.44;47.29;102617.72;5021581;28;20037;-32
2022/05/09 06:20:43;;;;;;;21.83;5.95;;;;;;;17.20;45.83;102617.09;5020586;28;20477;-33
2022/05/09 06:23:13;;;;;;;22.50;4.63;;;;;;;17.43;45.67;102625.22;5020814;28;20026;-33
2022/05/09 06:25:40;;;;;;;22.90;5.85;;;;;;;18.17;43.46;102615.28;5020253;28;20037;-33
2022/05/09 06:28:06;;;;;;;23.13;5.60;;;;;;;18.76;42.53;102608.88;5023108;28;20057;-33
2022/05/09 06:30:32;;;;;;;23.20;5.35;;;;;;;19.56;40.66;102615.03;5023457;28;20033;-32
2022/05/09 06:32:58;;;;;;;25.92;6.47;;;;;;;19.11;40.74;102627.25;5032440;28;20037;-33
2022/05/09 06:35:25;;;;;;;24.70;6.07;;;;;;;18.35;42.20;102630.38;5017081;28;20102;-30
2022/05/09 06:37:56;;;;;;;20.92;6.03;;;;;;;19.50;40.60;102627.63;5002778;28;20611;-32
2022/05/09 06:40:22;;;;;;;23.17;5.85;;;;;;;19.81;40.95;102620.94;5018188;28;20030;-33
2022/05/09 06:42:51;;;;;;;21.65;6.07;;;;;;;19.58;38.99;102623.06;5019915;28;20114;-32
2022/05/09 06:45:16;;;;;;;28.13;6.18;;;;;;;19.34;40.87;102616.16;5019340;28;20030;-33
2022/05/09 06:47:50;;;;;;;24.65;6.20;;;;;;;19.91;38.74;102618.69;5023056;28;20032;-31
2022/05/09 06:50:16;;;;;;;34.08;6.93;;;;;;;20.44;38.95;102620.00;5017564;28;20037;-33
2022/05/09 06:52:42;;;;;;;25.20;6.63;;;;;;;20.97;37.23;102617.44;5017320;28;20029;-32
2022/05/09 06:55:08;;;;;;;26.55;6.75;;;;;;;20.77;36.81;102618.25;5005730;28;20305;-31
2022/05/09 06:57:41;;;;;;;33.20;6.88;;;;;;;21.50;36.93;102617.50;5026819;28;20049;-28
2022/05/09 07:00:10;;;;;;;28.42;6.47;;;;;;;22.39;34.81;102616.03;5027817;28;20022;-28
2022/05/09 07:02:35;;;;;;;23.13;6.90;;;;;;;22.37;36.01;102618.16;5027467;28;20050;-33
2022/05/09 07:05:05;;;;;;;23.73;6.78;;;;;;;22.38;34.75;102617.13;5028566;28;20029;-33
2022/05/09 07:07:31;;;;;;;21.88;7.05;;;;;;;21.75;35.24;102614.97;5033534;28;20033;-32
2022/05/09 07:09:56;;;;;;;30.58;7.05;;;;;;;21.47;37.68;102617.94;5030892;28;20507;-34
2022/05/09 07:12:21;;;;;;;24.52;7.10;;;;;;;20.90;36.24;102617.44;5024532;28;20034;-32
2022/05/09 07:14:47;;;;;;;29.08;7.43;;;;;;;21.36;35.85;102615.81;5025541;28;20437;-33
2022/05/09 07:17:12;;;;;;;20.25;6.72;;;;;;;22.60;34.41;102616.78;5026286;28;20034;-35
2022/05/09 07:19:37;;;;;;;21.65;6.82;;;;;;;22.36;34.01;102611.00;5032197;28;20093;-33
2022/05/09 07:22:03;;;;;;;28.50;7.35;;;;;;;22.08;35.15;102614.03;5020566;28;20615;-33
2022/05/09 07:24:28;;;;;;;32.42;7.45;;;;;;;22.84;33.33;102612.44;5045180;28;20103;-33
2022/05/09 07:26:54;;;;;;;33.75;7.57;;;;;;;23.81;32.35;102607.44;5043721;28;20022;-33
2022/05/09 07:29:19;;;;;;;32.65;8.40;;;;;;;23.13;32.90;102606.34;5025500;28;20049;-33
2022/05/09 07:31:44;;;;;;;29.70;7.65;;;;;;;23.71;32.15;102607.09;5024035;28;20029;-32
2022/05/09 07:34:10;;;;;;;22.13;6.65;;;;;;;23.16;32.79;102607.78;5022529;28;20049;-32
2022/05/09 07:36:35;;;;;;;30.63;7.75;;;;;;;23.05;32.44;102603.84;5028445;28;20091;-34
2022/05/09 07:39:01;;;;;;;29.98;7.85;;;;;;;22.96;32.48;102597.81;5031427;28;20048;-33
2022/05/09 07:41:27;;;;;;;26.90;8.05;;;;;;;22.90;32.61;102595.06;5037553;28;20045;-32
2022/05/09 07:43:52;;;;;;;27.45;8.20;;;;;;;23.12;33.04;102604.66;5040048;28;20085;-32
2022/05/09 07:46:18;;;;;;;29.98;7.60;;;;;;;22.82;33.81;102604.41;5028791;28;20473;-34
2022/05/09 07:48:43;;;;;;;41.22;8.45;;;;;;;22.46;33.32;102592.16;5022452;28;20026;-34
2022/05/09 07:51:08;;;;;;;25.17;7.78;;;;;;;22.90;32.67;102600.56;5025509;28;20026;-33
2022/05/09 07:53:34;;;;;;;37.47;8.43;;;;;;;23.97;31.17;102598.59;5022244;28;20030;-34
2022/05/09 07:56:02;;;;;;;33.72;8.40;;;;;;;24.70;30.01;102600.44;5023424;28;20105;-34
2022/05/09 07:58:28;;;;;;;38.15;8.00;;;;;;;25.02;29.74;102596.56;5022573;28;20034;-35
2022/05/09 08:00:58;;;;;;;40.92;8.50;;;;;;;24.82;30.26;102599.63;5020043;28;20397;-34
2022/05/09 08:03:24;;;;;;;33.88;7.97;;;;;;;23.45;31.77;102598.03;5016322;28;20444;-34
2022/05/09 08:05:50;;;;;;;28.15;8.15;;;;;;;23.98;30.48;102602.16;5020745;28;20088;-35
2022/05/09 08:08:16;;;;;;;37.47;8.80;;;;;;;23.82;31.52;102593.44;5019794;28;20022;-34
2022/05/09 08:10:42;;;;;;;36.15;8.57;;;;;;;24.78;29.62;102596.50;5017009;28;20115;-34
2022/05/09 08:13:09;;;;;;;26.45;8.05;;;;;;;24.92;29.68;102597.97;5017679;28;20052;-35
2022/05/09 08:15:35;;;;;;;25.63;7.68;;;;;;;25.42;28.67;102596.75;5018301;28;20034;-34
2022/05/09 08:18:01;;;;;;;31.05;8.13;;;;;;;24.55;29.83;102589.00;5016595;28;20366;-34
2022/05/09 08:20:28;;;;;;;34.55;8.68;;;;;;;24.90;28.70;102591.00;5020087;28;20231;-34
2022/05/09 08:23:03;;;;;;;32.80;7.78;;;;;;;25.55;28.56;102579.97;5020409;28;20021;-36
2022/05/09 08:25:30;;;;;;;36.83;7.70;;;;;;;26.58;26.68;102590.44;5005700;28;20033;-33
2022/05/09 08:27:55;;;;;;;39.08;9.15;;;;;;;25.21;29.22;102594.59;5023497;28;20121;-33
2022/05/09 08:30:20;;;;;;;26.58;7.90;;;;;;;25.17;28.28;102584.03;5020774;28;20073;-34
2022/05/09 08:32:46;;;;;;;39.25;8.85;;;;;;;24.52;29.18;102583.97;5025289;28;20072;-34
2022/05/09 08:35:13;;;;;;;35.47;7.70;;;;;;;25.36;28.11;102581.19;5034570;28;20065;-34
2022/05/09 08:37:38;;;;;;;24.35;6.78;;;;;;;25.21;28.54;102589.91;5019907;28;20088;-31
2022/05/09 08:40:04;;;;;;;32.50;8.45;;;;;;;24.38;29.73;102590.66;5020935;28;20030;-32
2022/05/09 08:43:16;;;;;;;31.50;8.60;;;;;;;24.86;29.52;102584.31;5021566;28;22285;-33
2022/05/09 08:45:50;;;;;;;33.78;7.97;;;;;;;25.21;27.87;102580.81;4944983;29;20059;-34
2022/05/09 08:48:32;;;;;;;31.48;7.47;;;;;;;25.14;28.29;102578.13;4990659;28;20045;-34
2022/05/09 08:51:22;;;;;;;31.52;6.80;;;;;;;25.66;29.01;102575.53;5013833;28;20046;-33
2022/05/09 08:53:55;;;;;;;40.72;7.60;;;;;;;26.80;27.10;102576.75;5023769;28;20045;-33
2022/05/09 08:56:21;;;;;;;41.08;8.00;;;;;;;27.31;26.25;102572.97;5034509;28;20057;-34
2022/05/09 08:59:11;;;;;;;30.30;6.88;;;;;;;27.33;25.40;102575.44;5019024;28;20033;-34
2022/05/09 09:01:42;;;;;;;32.42;7.28;;;;;;;27.85;24.03;102582.59;5012993;28;20033;-33
2022/05/09 09:04:18;;;;;;;28.58;6.13;;;;;;;27.72;24.37;102559.69;5021613;28;20081;-33
2022/05/09 09:07:31;;;;;;;34.00;6.38;;;;;;;28.47;23.90;102571.19;5014828;28;20059;-33
2022/05/09 09:10:15;;;;;;;24.55;5.35;;;;;;;26.15;24.17;102565.03;4981244;28;20058;-32
2022/05/09 09:12:47;;;;;;;20.08;4.38;;;;;;;25.36;25.61;102559.13;4980239;28;20130;-35
2022/05/09 09:15:25;;;;;;;9.38;3.47;;;;;;;25.74;24.77;102555.00;5010072;28;20041;-33
2022/05/09 09:17:59;;;;;;;21.83;4.88;;;;;;;26.22;23.95;102549.13;5007725;28;20041;-33
2022/05/09 09:20:43;;;;;;;20.80;4.28;;;;;;;25.96;23.95;102547.81;5019136;28;20521;-34
2022/05/09 09:23:38;;;;;;;18.77;5.07;;;;;;;26.37;24.75;102542.25;5014061;28;20034;-33
2022/05/09 09:26:22;;;;;;;20.20;4.80;;;;;;;26.82;24.30;102541.44;5029960;28;20030;-34
2022/05/09 09:28:53;;;;;;;22.17;6.38;;;;;;;26.32;23.96;102534.72;5030143;28;20092;-35
2022/05/09 09:31:24;;;;;;;23.05;4.70;;;;;;;25.89;24.19;102540.75;5021945;28;20038;-34
2022/05/09 09:34:04;;;;;;;17.95;4.60;;;;;;;26.76;24.42;102540.53;5004225;28;20077;-33
2022/05/09 09:36:35;;;;;;;18.45;4.30;;;;;;;27.36;23.73;102539.84;5018999;28;20032;-33
2022/05/09 09:39:13;;;;;;;18.63;4.38;;;;;;;27.25;23.54;102535.28;5007825;28;20026;-34
2022/05/09 09:41:39;;;;;;;23.23;5.07;;;;;;;26.50;23.45;102531.75;5006204;28;20397;-33
2022/05/09 09:44:08;;;;;;;20.85;4.88;;;;;;;26.42;24.15;102529.38;5024405;28;20028;-36
2022/05/09 09:46:34;;;;;;;27.48;6.18;;;;;;;27.25;24.17;102515.94;5021254;28;20018;-34
2022/05/09 09:49:07;;;;;;;19.80;5.90;;;;;;;28.33;22.24;102531.13;5023152;28;20060;-34
2022/05/09 09:51:44;;;;;;;21.55;4.80;;;;;;;27.68;23.49;102530.06;5021077;28;20284;-34
2022/05/09 09:54:09;;;;;;;24.13;4.25;;;;;;;27.68;23.27;102530.91;5014094;28;20049;-34
2022/05/09 09:56:36;;;;;;;22.38;5.45;;;;;;;27.53;23.55;102530.69;5019921;28;20481;-35
2022/05/09 09:59:10;;;;;;;26.38;5.97;;;;;;;26.19;24.48;102533.06;5016244;28;20212;-33
2022/05/09 10:01:36;;;;;;;24.08;5.72;;;;;;;26.89;24.78;102517.25;5022952;28;20030;-33
2022/05/09 10:04:06;;;;;;;19.02;5.20;;;;;;;27.94;23.27;102517.44;5019432;28;20057;-34
2022/05/09 10:06:32;;;;;;;22.33;5.00;;;;;;;26.91;23.53;102520.63;5023185;28;20030;-34
2022/05/09 10:09:00;;;;;;;22.08;5.43;;;;;;;27.40;24.15;102515.28;5024110;28;20056;-35
2022/05/09 10:11:29;;;;;;;26.40;5.45;;;;;;;27.96;23.37;102515.22;5022272;28;20512;-33
2022/05/09 10:13:57;;;;;;;33.50;5.57;;;;;;;28.94;21.88;102515.09;5023773;28;20054;-35
2022/05/09 10:16:28;;;;;;;32.17;6.38;;;;;;;27.84;22.54;102511.75;5016579;28;20023;-34
2022/05/09 10:18:54;;;;;;;25.40;5.57;;;;;;;27.70;23.15;102508.50;5023194;28;20040;-33
2022/05/09 10:24:47;;;;;;;17.23;5.53;;;;;;;28.41;23.07;102505.72;5011345;28;20401;-33
2022/05/09 10:26:56;;;;;;;32.40;5.55;;;;;;;29.18;21.25;102506.44;5015064;28;20048;-34
2022/05/09 10:29:23;;;;;;;17.98;5.82;;;;;;;27.36;23.44;102503.91;5018082;28;20033;-34
2022/05/09 10:31:54;;;;;;;24.05;6.18;;;;;;;26.25;23.79;102495.38;5009331;28;20033;-34
2022/05/09 10:34:26;;;;;;;31.63;6.07;;;;;;;26.01;24.45;102489.13;5004669;28;20400;-34
2022/05/09 10:37:00;;;;;;;28.30;6.60;;;;;;;25.36;25.60;102493.00;5010260;28;20327;-34
2022/05/09 10:39:33;;;;;;;22.63;5.68;;;;;;;26.40;24.40;102481.84;5017650;28;20049;-36
2022/05/09 10:42:04;;;;;;;29.48;6.63;;;;;;;26.83;24.02;102485.09;5016962;28;20100;-34
2022/05/09 10:44:29;;;;;;;23.08;5.90;;;;;;;27.39;24.02;102483.22;5016821;28;20030;-34
2022/05/09 10:47:10;;;;;;;24.98;6.03;;;;;;;27.58;22.96;102481.81;5010087;28;20061;-35
2022/05/09 10:49:46;;;;;;;32.83;6.57;;;;;;;27.57;23.56;102482.06;5017839;28;20030;-34
2022/05/09 10:52:33;;;;;;;24.95;5.20;;;;;;;29.01;22.04;102482.44;5019850;28;20062;-34
2022/05/09 10:55:43;;;;;;;24.98;5.32;;;;;;;29.96;20.63;102482.41;5017324;28;20034;-35
2022/05/09 10:58:22;;;;;;;28.05;5.97;;;;;;;29.41;21.09;102480.19;5008977;28;20037;-35
2022/05/09 11:00:51;;;;;;;19.77;5.35;;;;;;;28.85;21.24;102478.72;5013916;28;20026;-35
2022/05/09 11:03:22;;;;;;;15.48;5.13;;;;;;;28.60;21.43;102476.59;5018669;28;20425;-35
2022/05/09 11:06:05;;;;;;;17.30;4.78;;;;;;;27.29;23.69;102472.00;5020602;28;20045;-33
2022/05/09 11:08:42;;;;;;;18.98;4.40;;;;;;;27.91;22.78;102468.09;5019176;28;20038;-33
2022/05/09 11:11:25;;;;;;;24.67;5.55;;;;;;;28.44;21.52;102467.31;5021372;28;20041;-33
2022/05/09 11:14:03;;;;;;;22.08;5.03;;;;;;;28.16;21.82;102462.84;5022425;28;20030;-34
2022/05/09 11:16:44;;;;;;;27.70;5.18;;;;;;;28.33;22.59;102465.53;5024096;28;20026;-34
2022/05/09 11:19:19;;;;;;;27.33;5.93;;;;;;;27.76;23.23;102464.03;5021842;28;20057;-34
2022/05/09 11:22:02;;;;;;;25.45;5.97;;;;;;;27.68;23.12;102463.69;5023592;28;20085;-32
2022/05/09 11:24:42;;;;;;;20.90;5.85;;;;;;;27.78;22.62;102463.81;5024193;28;20049;-34
2022/05/09 11:27:40;;;;;;;30.00;5.57;;;;;;;28.44;21.33;102460.94;5023864;28;20053;-34
2022/05/09 11:30:20;;;;;;;25.42;5.47;;;;;;;29.65;20.32;102455.63;5024879;28;20038;-35
2022/05/09 11:32:47;;;;;;;21.95;5.38;;;;;;;29.61;20.67;102448.94;5005942;28;20158;-35
2022/05/09 11:35:33;;;;;;;23.77;5.60;;;;;;;29.17;21.00;102447.34;5013316;28;20536;-35
2022/05/09 11:38:07;;;;;;;32.28;6.45;;;;;;;28.48;22.17;102445.47;5021714;28;20053;-34
2022/05/09 11:40:37;;;;;;;24.30;6.22;;;;;;;28.72;21.51;102440.38;5012639;28;20057;-34